Stanhope, New Jersey
Current Conditions -  °F | °C
As of 3:35 AM on Monday 26 Jan 2015 (Local Time) from KMMU Reporting Station
Overcast Overcast  
Wind Chill: -8°   Ceiling: 3800
Heat Index: -3°   Visibility: 10mi
Dew Point: -15°   Wind: 10mph
Humidity: 40%   Direction: 40°NE
Pressure: 30.02"   Gusts: NA
Location:  40.9°N, 74.71°W
Report Text: KMMU 260835Z AUTO 04009KT 10SM OVC038 M03/M15 A3002 RMK AO2
Loading
Personal Weather Stations






























Interactive Weather Map New forecast layout! Learn more

10-Day Weather Forecast

Advertisements
Track Severe Weather on mobile